Sarasota, FL

6:53 AM EDT on September 05, 2015 (GMT -0400)
Sarasota-bradenton | | Change Station
CLOSE
Current Station
Airport
Location: Sarasota,
Elevation: 30 ft
Nearby Weather Stations

Elev 30 ft 27.40 °N, 82.56 °W | Updated 1 hour ago

Clear
Clear
74 °F
Feels Like 74 °F
N
4
Wind Variable Wind from East

Today
High -- | Low -- °F
--% Chance of Precip.
Yesterday
High -- | Low -- °F
Precip. -- in
7:11 AM 7:46 PM
Waning Gibbous, 50% visible
Pressure 29.96 in
Visibility 10.0 miles
Clouds Clear
Dew Point 73 °F
Humidity 97%
Rainfall 0.00 in
Snow Depth Not available.
UV 0 out of 12
Pollen 4.30 out of 12
Air Quality Not available.
Flu Activity Not available.
METAR KSRQ 050953Z AUTO 08003KT 10SM CLR 23/23 A2996 RMK AO2 SLP144 T02330228
Pressure 29.96 in
Visibility 10.0 miles
Clouds Clear
Dew Point 73 °F
Humidity 97%
Rainfall 0.00 in
Snow Depth Not available.
UV 0 out of 12
Pollen 4.30 out of 12
Air Quality Not available.
Flu Activity Not available.
METAR KSRQ 050953Z AUTO 08003KT 10SM CLR 23/23 A2996 RMK AO2 SLP144 T02330228

10-Day Weather Forecast

×

Almanac

Astronomy

Sep. 05, 2015 Rise Set
Actual Time
Civil Twilight
Nautical Twilight
Astronomical Twilight
Moon
Length of Visible Light
Length of Day
Tomorrow will be .
, % of the Moon is Illuminated

Today's Extremes

State Highs State Lows

Community

WunderPhotos

Upload Photos

1,852,439 photos uploaded!

WunderBlogs® & News

Nearby

Air Quality

  Air Quality AQ Index Pollutant
Not available.

Snow Depth

Station Depth Elevation

Earthquake Activity

City Distance Mag. Time & Date
Minimum magnitude displayed is 2.5.

Coastal Water Temperatures

Place Temperature

Stations

Nearby Weather Stations

Station Location Temp. Windchill Dew Point Humidity Wind Precip. Elev Updated Type